Time;durP1;ratioP1;P1;durP2;ratioP2;P2;SDS_P1;SDS_P2;PMS_P1;PMS_P2;Temp;Humidity;BMP_temperature;BMP_pressure;BME280_temperature;BME280_humidity;BME280_pressure;Samples;Min_cycle;Max_cycle;Signal;HPM_P1;HPM_P2
2023/03/12 00:02:06;;;;;;;16.35;14.95;;;;;;;5.20;66.17;101039.81;5084809;28;20419;-69
2023/03/12 00:04:33;;;;;;;13.60;12.80;;;;;;;5.20;66.24;101023.75;5087013;28;20152;-71
2023/03/12 00:06:59;;;;;;;14.57;13.57;;;;;;;5.19;65.77;101004.19;5104283;28;20036;-70
2023/03/12 00:09:25;;;;;;;14.93;14.02;;;;;;;5.19;66.34;101012.22;5099953;28;20035;-71
2023/03/12 00:11:50;;;;;;;17.08;15.88;;;;;;;5.18;66.16;101013.22;5083583;28;20049;-71
2023/03/12 00:14:16;;;;;;;13.23;12.40;;;;;;;5.18;66.32;101013.22;5087939;28;20115;-70
2023/03/12 00:16:41;;;;;;;15.20;14.10;;;;;;;5.18;66.30;100999.84;5093820;28;20032;-71
2023/03/12 00:19:06;;;;;;;13.77;12.48;;;;;;;5.16;66.17;100996.53;5122243;27;20068;-70
2023/03/12 00:21:32;;;;;;;15.07;14.07;;;;;;;5.17;66.41;100992.84;5106319;28;20097;-71
2023/03/12 00:23:57;;;;;;;16.42;13.77;;;;;;;5.17;66.18;100994.69;5105678;28;20071;-70
2023/03/12 00:26:23;;;;;;;14.70;13.77;;;;;;;5.16;66.10;100993.84;5074446;28;20028;-71
2023/03/12 00:28:49;;;;;;;17.90;16.27;;;;;;;5.16;66.18;100993.84;5082819;28;20041;-72
2023/03/12 00:31:27;;;;;;;14.45;13.35;;;;;;;5.15;66.48;100989.53;5074186;28;20038;-74
2023/03/12 00:33:54;;;;;;;16.63;15.15;;;;;;;5.15;66.42;100992.22;5092705;28;20544;-72
2023/03/12 00:36:23;;;;;;;14.93;13.90;;;;;;;5.14;66.18;100985.22;5111433;28;20479;-70
2023/03/12 00:38:49;;;;;;;13.85;13.00;;;;;;;5.15;66.05;100989.53;5085928;28;20036;-71
2023/03/12 00:41:15;;;;;;;14.25;13.27;;;;;;;5.14;66.24;100985.22;5087129;28;20064;-72
2023/03/12 00:43:40;;;;;;;14.23;13.18;;;;;;;5.15;66.13;100983.38;5091931;28;20032;-71
2023/03/12 00:46:06;;;;;;;13.85;12.57;;;;;;;5.14;66.44;100989.72;5093553;28;20065;-70
2023/03/12 00:48:31;;;;;;;15.05;13.90;;;;;;;5.14;66.24;100979.00;5096527;28;20020;-71
2023/03/12 00:50:57;;;;;;;15.27;14.38;;;;;;;5.13;66.49;100970.16;5100897;28;20384;-70
2023/03/12 00:53:22;;;;;;;14.05;13.18;;;;;;;5.13;66.40;100967.47;5092367;28;20036;-72
2023/03/12 00:55:47;;;;;;;16.48;14.98;;;;;;;5.12;66.29;100960.50;5095821;28;20379;-71
2023/03/12 00:58:13;;;;;;;13.43;12.52;;;;;;;5.12;66.50;100959.66;5101902;28;20032;-70
2023/03/12 01:00:38;;;;;;;15.10;13.98;;;;;;;5.12;66.28;100952.47;5080257;28;20043;-71
2023/03/12 01:03:04;;;;;;;13.95;13.02;;;;;;;5.12;66.38;100952.47;5087242;28;20059;-70
2023/03/12 01:05:30;;;;;;;15.30;14.35;;;;;;;5.12;66.52;100946.28;5092618;28;20052;-70
2023/03/12 01:07:56;;;;;;;16.15;14.75;;;;;;;5.12;66.66;100947.09;5090414;28;20043;-69
2023/03/12 01:10:22;;;;;;;13.65;12.85;;;;;;;5.11;66.31;100942.75;5081618;28;20028;-72
2023/03/12 01:12:47;;;;;;;14.68;13.57;;;;;;;5.12;66.57;100946.28;5079682;28;20101;-71
2023/03/12 01:15:15;;;;;;;15.13;13.93;;;;;;;5.11;66.63;100940.06;5080522;28;20094;-70
2023/03/12 01:17:41;;;;;;;16.40;15.32;;;;;;;5.10;66.09;100941.13;5081660;28;20032;-70
2023/03/12 01:20:07;;;;;;;14.40;13.50;;;;;;;5.10;66.28;100943.78;5108889;27;20040;-72
2023/03/12 01:22:33;;;;;;;14.75;13.52;;;;;;;5.10;66.44;100946.47;5076748;28;20067;-71
2023/03/12 01:24:59;;;;;;;17.50;16.00;;;;;;;5.11;66.57;100941.94;5106421;28;20116;-72
2023/03/12 01:27:25;;;;;;;14.48;13.57;;;;;;;5.10;66.43;100934.94;5076757;28;20534;-70
2023/03/12 01:29:50;;;;;;;16.35;15.05;;;;;;;5.09;66.59;100933.28;5087929;28;20036;-71
2023/03/12 01:32:16;;;;;;;18.58;12.98;;;;;;;5.08;66.34;100928.97;5081516;28;20093;-72
2023/03/12 01:34:42;;;;;;;14.55;13.65;;;;;;;5.09;66.30;100930.59;5120580;27;20116;-71
2023/03/12 01:37:07;;;;;;;14.38;13.23;;;;;;;5.08;66.39;100920.94;5119109;27;20071;-72
2023/03/12 01:39:33;;;;;;;14.77;13.38;;;;;;;5.07;66.24;100916.59;5105615;28;20137;-70
2023/03/12 01:41:59;;;;;;;16.02;14.52;;;;;;;5.08;66.56;100923.59;5123791;27;20372;-71
2023/03/12 01:44:24;;;;;;;15.00;13.80;;;;;;;5.07;66.61;100909.41;5083790;28;20476;-71
2023/03/12 01:46:50;;;;;;;15.98;14.77;;;;;;;5.08;66.65;100919.06;5089423;28;20085;-72
2023/03/12 01:49:25;;;;;;;16.00;14.90;;;;;;;5.08;66.42;100919.06;5102186;28;20032;-70
2023/03/12 01:52:15;;;;;;;14.50;13.05;;;;;;;5.07;66.14;100912.06;5107238;28;20046;-70
2023/03/12 01:55:08;;;;;;;14.60;13.18;;;;;;;5.06;66.43;100917.63;5090933;28;20055;-70
2023/03/12 01:57:51;;;;;;;13.85;12.55;;;;;;;5.06;66.28;100910.41;5084582;28;20034;-72
2023/03/12 02:00:21;;;;;;;12.65;11.65;;;;;;;5.05;66.26;100916.81;5092680;28;20138;-70
2023/03/12 02:02:48;;;;;;;13.65;12.65;;;;;;;5.05;66.31;100905.28;5092224;28;20028;-71
2023/03/12 02:05:32;;;;;;;15.18;13.80;;;;;;;5.05;66.41;100899.91;5091327;28;20059;-71
2023/03/12 02:07:57;;;;;;;15.48;14.48;;;;;;;5.04;66.16;100888.38;5087322;28;20059;-71
2023/03/12 02:10:24;;;;;;;14.45;13.45;;;;;;;5.04;66.55;100875.00;5107981;28;20072;-71
2023/03/12 02:12:50;;;;;;;15.45;14.35;;;;;;;5.04;66.51;100877.69;5103258;28;20031;-70
2023/03/12 02:15:16;;;;;;;14.55;13.40;;;;;;;5.05;66.31;100875.81;5104866;28;20098;-70
2023/03/12 02:17:41;;;;;;;13.00;12.20;;;;;;;5.04;66.72;100872.31;5093864;28;20036;-70
2023/03/12 02:20:16;;;;;;;14.00;13.10;;;;;;;5.04;66.75;100880.34;5090594;28;20059;-70
2023/03/12 02:22:46;;;;;;;17.48;12.90;;;;;;;5.05;66.52;100870.47;5090007;28;20020;-71
2023/03/12 02:25:34;;;;;;;14.45;13.55;;;;;;;5.04;66.59;100875.00;5082514;28;20032;-70
2023/03/12 02:28:03;;;;;;;13.98;12.98;;;;;;;5.03;66.47;100880.53;5093967;28;20030;-70
2023/03/12 02:30:30;;;;;;;14.07;13.18;;;;;;;5.03;66.33;100888.56;5099959;28;20081;-70
2023/03/12 02:32:58;;;;;;;15.52;14.18;;;;;;;5.02;66.52;100877.06;5092438;28;20043;-71
2023/03/12 02:35:23;;;;;;;15.47;14.47;;;;;;;5.04;66.45;100882.19;5076613;28;20088;-70
2023/03/12 02:37:51;;;;;;;13.65;12.55;;;;;;;5.03;66.74;100881.38;5083128;28;20107;-71
2023/03/12 02:40:26;;;;;;;14.73;13.43;;;;;;;5.03;66.56;100872.50;5086999;28;20027;-70
2023/03/12 02:42:52;;;;;;;13.35;12.48;;;;;;;5.03;66.52;100865.31;5078056;28;20089;-70
2023/03/12 02:45:18;;;;;;;14.00;13.13;;;;;;;5.02;66.76;100869.03;5086869;28;20055;-70
2023/03/12 02:47:44;;;;;;;16.35;15.25;;;;;;;5.02;66.53;100862.84;5100840;28;20055;-70
2023/03/12 02:50:12;;;;;;;12.07;11.30;;;;;;;5.02;66.61;100860.16;5091981;28;20044;-71
2023/03/12 02:52:38;;;;;;;14.05;13.05;;;;;;;5.01;66.62;100864.69;5076181;28;20032;-71
2023/03/12 02:55:05;;;;;;;14.15;13.15;;;;;;;5.02;66.58;100862.84;5100950;28;20031;-71
2023/03/12 02:57:31;;;;;;;15.63;14.43;;;;;;;5.01;66.42;100856.66;5109293;28;20033;-70
2023/03/12 02:59:56;;;;;;;15.70;14.40;;;;;;;5.02;66.58;100866.34;5089226;28;20036;-71
2023/03/12 03:02:23;;;;;;;14.15;12.98;;;;;;;5.01;66.62;100861.19;5089197;28;20058;-72
2023/03/12 03:04:48;;;;;;;13.32;12.52;;;;;;;5.01;66.76;100848.63;5080873;28;20106;-71
2023/03/12 03:07:14;;;;;;;14.73;13.80;;;;;;;5.01;66.65;100851.28;5084188;28;20468;-71
2023/03/12 03:09:39;;;;;;;15.15;14.10;;;;;;;5.01;66.67;100851.28;5121426;28;20035;-70
2023/03/12 03:12:05;;;;;;;17.33;15.95;;;;;;;5.01;66.44;100839.75;5089579;28;20496;-70
2023/03/12 03:14:30;;;;;;;14.20;13.20;;;;;;;4.99;66.58;100835.44;5096183;28;20475;-70
2023/03/12 03:16:56;;;;;;;15.05;13.98;;;;;;;5.01;66.76;100837.91;5090960;28;20100;-71
2023/03/12 03:19:21;;;;;;;15.90;14.80;;;;;;;5.01;66.84;100839.75;5123900;28;20394;-71
2023/03/12 03:21:47;;;;;;;12.88;12.07;;;;;;;5.01;66.57;100834.41;5090346;28;20046;-70
2023/03/12 03:24:12;;;;;;;16.08;15.00;;;;;;;5.02;66.72;100836.06;5078242;28;20129;-70
2023/03/12 03:26:38;;;;;;;13.55;12.55;;;;;;;5.00;66.52;100830.91;5094971;28;20501;-71
2023/03/12 03:29:03;;;;;;;14.85;13.82;;;;;;;5.01;66.88;100821.84;5093677;28;20499;-70
2023/03/12 03:31:29;;;;;;;14.90;13.90;;;;;;;5.01;66.82;100813.81;5104320;28;20111;-71
2023/03/12 03:33:54;;;;;;;12.43;11.73;;;;;;;5.01;66.46;100807.63;5094115;28;20040;-71
2023/03/12 03:36:22;;;;;;;14.50;13.68;;;;;;;5.01;66.68;100800.44;5090836;28;20635;-72
2023/03/12 03:38:49;;;;;;;13.63;12.63;;;;;;;5.00;66.51;100798.78;5101226;28;20028;-71
2023/03/12 03:41:16;;;;;;;14.25;13.10;;;;;;;5.02;66.78;100798.59;5091618;28;20392;-70
2023/03/12 03:43:42;;;;;;;13.55;12.68;;;;;;;5.01;66.62;100807.63;5097756;28;20126;-70
2023/03/12 03:46:09;;;;;;;20.20;14.82;;;;;;;5.01;66.78;100810.31;5087136;28;20532;-69
2023/03/12 03:48:34;;;;;;;14.48;13.57;;;;;;;4.99;66.47;100808.69;5089361;28;20533;-70
2023/03/12 03:51:01;;;;;;;15.63;14.43;;;;;;;5.00;66.58;100809.50;5089017;28;20044;-70
2023/03/12 03:53:27;;;;;;;14.68;13.65;;;;;;;5.00;66.70;100801.47;5084631;28;20043;-70
2023/03/12 03:55:52;;;;;;;13.07;12.27;;;;;;;5.00;66.70;100790.75;5083035;28;20032;-70
2023/03/12 03:58:17;;;;;;;14.18;13.07;;;;;;;4.99;66.75;100795.28;5120912;27;20033;-72
2023/03/12 04:00:44;;;;;;;15.70;14.52;;;;;;;4.99;66.76;100792.63;5082841;28;20032;-70
2023/03/12 04:03:10;;;;;;;16.65;15.45;;;;;;;4.98;66.87;100782.91;5080420;28;20051;-70
2023/03/12 04:05:35;;;;;;;15.55;14.40;;;;;;;4.99;66.89;100786.44;5092140;28;20052;-70
2023/03/12 04:08:02;;;;;;;16.75;15.48;;;;;;;4.99;66.75;100779.22;5097376;28;20094;-72
2023/03/12 04:10:28;;;;;;;13.77;12.88;;;;;;;4.99;66.71;100762.34;5096782;28;20046;-70
2023/03/12 04:12:54;;;;;;;12.88;12.07;;;;;;;4.98;66.68;100758.81;5106976;28;20032;-71
2023/03/12 04:15:20;;;;;;;12.65;11.95;;;;;;;4.98;66.95;100758.00;5105499;28;20044;-70
2023/03/12 04:17:46;;;;;;;15.75;14.32;;;;;;;4.99;66.82;100759.69;5103008;28;20486;-72
2023/03/12 04:20:11;;;;;;;14.02;13.05;;;;;;;4.98;66.83;100755.34;5097101;28;20032;-71
2023/03/12 04:22:37;;;;;;;13.65;12.68;;;;;;;4.97;66.80;100749.16;5104807;28;20104;-71
2023/03/12 04:25:03;;;;;;;14.27;13.10;;;;;;;4.97;66.64;100757.19;5106298;28;20028;-71
2023/03/12 04:27:28;;;;;;;14.45;13.40;;;;;;;4.98;66.85;100758.00;5101651;28;20056;-71
2023/03/12 04:29:54;;;;;;;13.60;12.73;;;;;;;4.97;66.68;100757.19;5090401;28;20062;-70
2023/03/12 04:32:19;;;;;;;13.75;12.82;;;;;;;4.97;66.78;100759.88;5091008;28;20040;-70
2023/03/12 04:34:45;;;;;;;22.05;13.68;;;;;;;4.98;67.08;100755.34;5083313;28;20476;-71
2023/03/12 04:37:12;;;;;;;15.23;14.10;;;;;;;4.96;67.03;100744.84;5096628;28;20043;-69
2023/03/12 04:39:38;;;;;;;12.77;11.88;;;;;;;4.97;67.02;100745.66;5091236;28;20033;-71
2023/03/12 04:42:04;;;;;;;15.60;14.35;;;;;;;4.96;67.13;100742.19;5120266;27;20035;-71
2023/03/12 04:44:29;;;;;;;14.55;13.45;;;;;;;4.96;67.07;100731.47;5105330;28;20428;-71
2023/03/12 04:46:55;;;;;;;15.57;14.55;;;;;;;4.97;66.69;100725.06;5090478;28;20028;-71
2023/03/12 04:49:20;;;;;;;15.02;13.82;;;;;;;4.97;67.04;100724.25;5094586;28;20046;-70
2023/03/12 04:51:45;;;;;;;16.17;13.23;;;;;;;4.97;66.66;100711.69;5121933;27;20080;-71
2023/03/12 04:54:11;;;;;;;13.85;12.95;;;;;;;4.97;66.85;100714.34;5088514;28;20036;-70
2023/03/12 04:56:36;;;;;;;15.05;13.90;;;;;;;4.96;66.68;100710.06;5094027;28;20090;-72
2023/03/12 04:59:02;;;;;;;13.45;12.55;;;;;;;4.96;66.82;100704.69;5109089;28;20058;-71
2023/03/12 05:01:31;;;;;;;13.07;12.27;;;;;;;4.97;66.88;100700.16;5102728;28;20427;-70
2023/03/12 05:03:59;;;;;;;13.45;12.43;;;;;;;4.96;66.88;100691.31;5092308;28;20055;-73
2023/03/12 05:06:24;;;;;;;13.30;12.15;;;;;;;4.95;67.21;100686.16;5082341;28;20069;-70
2023/03/12 05:08:51;;;;;;;15.07;14.02;;;;;;;4.95;66.88;100684.28;5096166;28;20040;-70
2023/03/12 05:11:16;;;;;;;16.10;14.90;;;;;;;4.95;66.99;100692.31;5102516;28;20051;-71
2023/03/12 05:13:42;;;;;;;11.68;10.90;;;;;;;4.95;66.91;100697.69;5097151;28;20471;-69
2023/03/12 05:16:08;;;;;;;15.90;14.65;;;;;;;4.96;67.18;100695.81;5092716;28;20378;-71
2023/03/12 05:18:34;;;;;;;16.38;14.95;;;;;;;4.95;67.00;100689.66;5074542;28;20032;-71
2023/03/12 05:21:10;;;;;;;14.20;13.18;;;;;;;4.95;67.07;100696.84;5092363;28;20438;-71
2023/03/12 05:23:38;;;;;;;11.80;11.10;;;;;;;4.96;67.01;100696.66;5087321;28;20020;-72
2023/03/12 05:26:04;;;;;;;13.80;12.95;;;;;;;4.96;67.04;100690.47;5084655;28;20027;-70
2023/03/12 05:28:29;;;;;;;15.13;13.88;;;;;;;4.95;67.17;100680.81;5077485;28;20078;-70
2023/03/12 05:30:59;;;;;;;15.02;13.88;;;;;;;4.95;67.00;100676.25;5082518;28;20028;-72
2023/03/12 05:33:27;;;;;;;14.35;13.45;;;;;;;4.95;66.95;100673.59;5079195;28;20086;-70
2023/03/12 05:35:52;;;;;;;13.73;12.95;;;;;;;4.95;66.84;100676.25;5087717;28;20055;-71
2023/03/12 05:38:18;;;;;;;14.48;13.55;;;;;;;4.96;67.11;100679.75;5073533;28;20043;-71
2023/03/12 05:40:54;;;;;;;14.43;12.75;;;;;;;4.95;67.24;100670.09;5092844;28;20043;-70
2023/03/12 05:43:20;;;;;;;13.55;12.60;;;;;;;4.95;67.38;100676.25;5086966;28;20387;-71
2023/03/12 05:45:45;;;;;;;14.43;13.52;;;;;;;4.96;67.13;100687.78;5091926;28;20028;-71
2023/03/12 05:48:11;;;;;;;15.50;14.05;;;;;;;4.95;67.32;100686.97;5097465;28;20040;-71
2023/03/12 05:50:36;;;;;;;12.82;12.13;;;;;;;4.96;67.22;100682.44;5085568;28;20033;-70
2023/03/12 05:53:02;;;;;;;14.27;13.35;;;;;;;4.96;67.30;100680.59;5101034;28;20048;-70
2023/03/12 05:55:27;;;;;;;13.80;12.75;;;;;;;4.95;67.34;100681.63;5097810;28;20498;-71
2023/03/12 05:57:53;;;;;;;14.65;13.32;;;;;;;4.96;67.29;100682.44;5084744;28;20036;-71
2023/03/12 06:00:19;;;;;;;15.80;14.70;;;;;;;4.95;67.08;100686.97;5079432;28;20465;-70
2023/03/12 06:02:44;;;;;;;13.35;12.55;;;;;;;4.96;67.18;100688.63;5085125;28;20021;-72
2023/03/12 06:05:11;;;;;;;13.02;12.00;;;;;;;4.96;67.39;100685.97;5091350;28;20055;-71
2023/03/12 06:07:36;;;;;;;13.02;12.32;;;;;;;4.98;67.11;100693.75;5096894;28;20024;-71
2023/03/12 06:10:02;;;;;;;13.20;12.20;;;;;;;4.97;67.30;100694.81;5098256;28;20027;-71
2023/03/12 06:12:27;;;;;;;14.27;13.20;;;;;;;4.97;67.20;100687.59;5086162;28;20055;-70
2023/03/12 06:14:53;;;;;;;13.50;12.70;;;;;;;4.97;67.00;100687.59;5118723;27;20477;-71
2023/03/12 06:17:18;;;;;;;15.82;14.38;;;;;;;4.97;67.27;100690.28;5106058;28;20043;-70
2023/03/12 06:19:43;;;;;;;13.00;12.30;;;;;;;4.97;67.25;100686.78;5089038;28;20124;-72
2023/03/12 06:22:09;;;;;;;13.35;12.55;;;;;;;4.98;67.26;100693.75;5084498;28;22015;-71
2023/03/12 06:24:34;;;;;;;14.70;13.70;;;;;;;4.97;67.07;100690.28;5085784;28;20071;-71
2023/03/12 06:26:59;;;;;;;13.98;13.07;;;;;;;4.97;67.00;100682.25;5091793;28;20047;-71
2023/03/12 06:29:25;;;;;;;14.85;13.65;;;;;;;4.97;67.30;100682.25;5088454;28;20110;-72
2023/03/12 06:31:51;;;;;;;15.98;14.98;;;;;;;4.96;67.17;100677.94;5096784;28;20047;-72
2023/03/12 06:34:16;;;;;;;17.52;16.33;;;;;;;4.98;67.07;100669.66;5095698;28;20032;-71
2023/03/12 06:36:42;;;;;;;15.13;14.13;;;;;;;4.97;67.28;100665.34;5091252;28;20421;-71
2023/03/12 06:39:08;;;;;;;13.35;12.60;;;;;;;4.97;67.32;100655.47;5086268;28;20031;-71
2023/03/12 06:41:34;;;;;;;14.82;13.82;;;;;;;4.98;67.13;100651.75;5100893;28;20480;-71
2023/03/12 06:44:02;;;;;;;13.27;12.50;;;;;;;4.98;67.35;100642.91;5087763;28;20035;-71
2023/03/12 06:46:28;;;;;;;14.95;13.93;;;;;;;4.98;67.46;100642.91;5087191;28;20039;-71
2023/03/12 06:48:53;;;;;;;13.68;12.88;;;;;;;4.98;67.34;100630.34;5087908;28;20036;-71
2023/03/12 06:51:19;;;;;;;14.95;13.65;;;;;;;4.99;67.09;100625.81;5098967;28;20038;-70
2023/03/12 06:53:45;;;;;;;13.10;12.40;;;;;;;4.99;67.39;100639.22;5091363;28;21421;-71
2023/03/12 06:56:11;;;;;;;13.65;12.95;;;;;;;4.99;67.42;100623.97;5085273;28;20032;-71
2023/03/12 06:58:37;;;;;;;15.02;13.98;;;;;;;4.99;67.48;100632.00;5088045;28;20032;-71
2023/03/12 07:01:03;;;;;;;14.55;13.35;;;;;;;5.01;67.42;100639.81;5104913;28;20032;-71
2023/03/12 07:03:28;;;;;;;15.27;14.15;;;;;;;5.01;67.23;100631.78;5086738;28;20032;-71
2023/03/12 07:05:55;;;;;;;14.10;12.82;;;;;;;5.00;67.30;100635.50;5088913;28;20035;-71
2023/03/12 07:08:22;;;;;;;15.20;14.05;;;;;;;5.01;67.30;100636.31;5083143;28;20488;-70
2023/03/12 07:10:47;;;;;;;13.98;12.77;;;;;;;5.01;67.37;100639.81;5099529;28;20067;-71
2023/03/12 07:13:12;;;;;;;14.60;13.60;;;;;;;5.02;67.40;100646.00;5094011;28;20071;-71
2023/03/12 07:15:38;;;;;;;13.85;12.93;;;;;;;5.01;67.32;100650.50;5081955;28;20036;-72
2023/03/12 07:18:06;;;;;;;15.95;14.73;;;;;;;5.01;67.46;100642.47;5091316;28;20068;-70
2023/03/12 07:20:32;;;;;;;16.02;14.90;;;;;;;5.01;67.40;100645.16;5115666;27;20093;-71
2023/03/12 07:22:59;;;;;;;14.38;13.13;;;;;;;5.01;67.37;100650.50;5099222;28;20035;-70
2023/03/12 07:25:24;;;;;;;15.90;14.68;;;;;;;5.02;67.57;100654.84;5108772;28;20057;-70
2023/03/12 07:27:50;;;;;;;13.50;12.50;;;;;;;5.01;67.29;100649.69;5105419;28;20035;-71
2023/03/12 07:30:15;;;;;;;15.45;14.15;;;;;;;5.02;67.44;100644.16;5095310;28;20024;-72
2023/03/12 07:32:41;;;;;;;13.82;13.07;;;;;;;5.03;67.33;100650.31;5084727;28;20074;-71
2023/03/12 07:35:06;;;;;;;14.00;13.20;;;;;;;5.02;67.23;100651.34;5075417;28;20507;-71
2023/03/12 07:37:32;;;;;;;14.20;13.20;;;;;;;5.03;67.25;100653.00;5091014;28;20032;-71
2023/03/12 07:39:57;;;;;;;13.05;12.25;;;;;;;5.03;67.36;100661.03;5075213;28;20039;-71
2023/03/12 07:42:23;;;;;;;13.40;12.38;;;;;;;5.03;67.67;100653.00;5083976;28;20036;-71
2023/03/12 07:44:48;;;;;;;14.50;13.63;;;;;;;5.03;67.55;100653.00;5098142;28;20472;-70
2023/03/12 07:47:13;;;;;;;13.77;12.88;;;;;;;5.03;67.58;100651.13;5091649;28;20036;-71
2023/03/12 07:49:40;;;;;;;14.82;13.93;;;;;;;5.03;67.75;100653.00;5091930;28;20054;-70
2023/03/12 07:52:08;;;;;;;13.65;12.75;;;;;;;5.02;67.38;100652.19;5082147;28;20166;-70
2023/03/12 07:54:34;;;;;;;14.48;13.43;;;;;;;5.03;67.49;100653.81;5094236;28;20114;-70
2023/03/12 07:57:00;;;;;;;12.27;11.57;;;;;;;5.04;67.62;100650.13;5104386;28;20064;-70
2023/03/12 07:59:26;;;;;;;16.77;15.32;;;;;;;5.04;67.37;100644.75;5091421;28;20440;-71
2023/03/12 08:01:52;;;;;;;15.55;14.05;;;;;;;5.03;67.47;100645.78;5106638;28;20039;-70
2023/03/12 08:04:17;;;;;;;14.48;13.48;;;;;;;5.05;67.34;100649.06;5092638;28;20056;-71
2023/03/12 08:06:43;;;;;;;13.88;12.77;;;;;;;5.05;67.71;100642.91;5083200;28;20060;-71
2023/03/12 08:09:09;;;;;;;14.65;13.85;;;;;;;5.05;67.32;100648.25;5080836;28;20048;-70
2023/03/12 08:11:35;;;;;;;15.40;14.35;;;;;;;5.06;67.65;100650.72;5094348;28;20036;-70
2023/03/12 08:14:02;;;;;;;15.63;14.43;;;;;;;5.07;67.17;100651.56;5120089;27;20036;-70
2023/03/12 08:16:27;;;;;;;14.55;13.45;;;;;;;5.07;67.47;100648.88;5091360;28;20032;-71
2023/03/12 08:18:53;;;;;;;13.68;12.73;;;;;;;5.09;67.44;100654.81;5094545;28;20114;-70
2023/03/12 08:21:18;;;;;;;17.67;16.35;;;;;;;5.08;67.46;100658.53;5093234;28;20031;-70
2023/03/12 08:23:44;;;;;;;14.88;13.98;;;;;;;5.09;67.41;100650.31;5108005;28;20036;-70
2023/03/12 08:26:09;;;;;;;16.10;14.93;;;;;;;5.10;67.61;100654.63;5087040;28;20087;-70
2023/03/12 08:28:34;;;;;;;19.70;18.10;;;;;;;5.11;67.52;100655.44;5095549;28;20041;-71
2023/03/12 08:31:01;;;;;;;15.80;14.75;;;;;;;5.11;67.68;100666.97;5094739;28;20089;-70
2023/03/12 08:33:26;;;;;;;18.65;17.15;;;;;;;5.12;67.38;100670.50;5091454;28;20031;-71
2023/03/12 08:35:52;;;;;;;17.80;16.45;;;;;;;5.13;67.60;100680.97;5090566;28;20044;-70
2023/03/12 08:38:18;;;;;;;16.35;15.15;;;;;;;5.12;67.89;100676.66;5094795;28;20118;-70
2023/03/12 08:40:43;;;;;;;17.75;16.25;;;;;;;5.14;67.58;100689.81;5088577;28;20028;-70
2023/03/12 08:43:09;;;;;;;13.93;13.13;;;;;;;5.14;67.92;100676.44;5124428;27;20387;-70
2023/03/12 08:45:35;;;;;;;15.77;14.55;;;;;;;5.15;67.81;100694.16;5105593;28;20086;-70
2023/03/12 08:48:02;;;;;;;14.05;13.13;;;;;;;5.16;67.72;100695.81;5110324;27;20410;-71
2023/03/12 08:50:29;;;;;;;19.05;17.23;;;;;;;5.16;67.61;100699.28;5085158;28;20090;-70
2023/03/12 08:52:55;;;;;;;17.17;15.88;;;;;;;5.17;67.98;100694.78;5109419;28;20028;-71
2023/03/12 08:55:20;;;;;;;15.02;13.82;;;;;;;5.18;67.73;100696.44;5099504;28;20036;-71
2023/03/12 08:57:46;;;;;;;14.23;13.32;;;;;;;5.20;67.88;100699.72;5101115;28;20369;-71
2023/03/12 09:00:14;;;;;;;16.50;15.25;;;;;;;5.21;67.83;100702.16;5109437;28;20048;-71
2023/03/12 09:02:39;;;;;;;17.75;15.93;;;;;;;5.21;68.22;100701.34;5084891;28;20028;-71
2023/03/12 09:05:05;;;;;;;17.13;15.65;;;;;;;5.22;68.09;100692.31;5096767;28;20044;-71
2023/03/12 09:07:31;;;;;;;21.08;19.05;;;;;;;5.23;67.75;100695.81;5093397;28;20036;-71
2023/03/12 09:09:56;;;;;;;17.42;15.90;;;;;;;5.26;68.08;100706.09;5094178;28;20082;-70
2023/03/12 09:12:22;;;;;;;16.35;15.10;;;;;;;5.26;68.03;100695.38;5093854;28;20033;-71
2023/03/12 09:14:49;;;;;;;19.10;17.25;;;;;;;5.27;67.92;100699.72;5083853;28;20037;-71
2023/03/12 09:17:14;;;;;;;19.83;17.83;;;;;;;5.27;67.98;100695.19;5086613;28;20444;-71
2023/03/12 09:19:39;;;;;;;22.23;19.90;;;;;;;5.30;68.09;100696.63;5123684;27;20472;-71
2023/03/12 09:22:05;;;;;;;19.85;17.85;;;;;;;5.32;68.14;100692.69;5091652;28;20106;-71
2023/03/12 09:24:30;;;;;;;27.92;20.58;;;;;;;5.33;68.08;100691.66;5091301;28;20040;-71
2023/03/12 09:26:56;;;;;;;30.73;23.20;;;;;;;5.35;68.03;100696.81;5088612;28;20032;-71
2023/03/12 09:29:24;;;;;;;21.25;19.10;;;;;;;5.36;68.26;100701.94;5098329;28;20402;-71
2023/03/12 09:31:50;;;;;;;15.57;14.27;;;;;;;5.38;68.06;100699.88;5093812;28;20112;-72
2023/03/12 09:34:16;;;;;;;19.50;17.80;;;;;;;5.40;68.01;100697.81;5089036;28;20115;-71
2023/03/12 09:36:42;;;;;;;19.67;17.80;;;;;;;5.42;68.08;100709.16;5092179;28;20044;-70
2023/03/12 09:39:07;;;;;;;26.15;18.90;;;;;;;5.45;68.63;100704.41;5093478;28;20059;-70
2023/03/12 09:41:37;;;;;;;24.65;20.63;;;;;;;5.47;68.76;100713.06;5090390;28;20036;-71
2023/03/12 09:44:15;;;;;;;17.75;16.20;;;;;;;5.48;68.66;100718.22;5088926;28;20027;-71
2023/03/12 09:46:50;;;;;;;20.87;18.97;;;;;;;5.50;69.08;100729.53;5095763;28;20067;-71
2023/03/12 09:49:47;;;;;;;16.33;15.02;;;;;;;5.53;68.79;100726.44;5090018;28;20479;-71
2023/03/12 09:52:54;;;;;;;22.17;19.80;;;;;;;5.55;68.70;100735.09;5116297;27;20073;-71
2023/03/12 09:55:21;;;;;;;30.67;23.48;;;;;;;5.58;68.62;100739.22;5052494;28;20082;-71
2023/03/12 09:57:50;;;;;;;22.58;20.27;;;;;;;5.59;68.96;100736.34;5050357;28;20505;-71
2023/03/12 10:00:20;;;;;;;;;;;;;;;5.61;69.06;100739.59;5071490;28;20123;-71
2023/03/12 10:02:51;;;;;;;26.88;19.48;;;;;;;5.63;69.47;100744.75;5086300;28;19937;-71
2023/03/12 10:05:35;;;;;;;19.50;17.52;;;;;;;5.63;69.50;100737.53;5087908;28;20365;-72
2023/03/12 10:08:18;;;;;;;23.77;19.30;;;;;;;5.66;69.59;100738.16;5084456;28;20077;-72
2023/03/12 10:10:51;;;;;;;23.33;21.08;;;;;;;5.68;69.73;100736.09;5100297;28;20043;-71
2023/03/12 10:13:32;;;;;;;20.67;18.15;;;;;;;5.69;69.70;100729.69;5088150;28;20028;-72
2023/03/12 10:16:28;;;;;;;20.05;18.02;;;;;;;5.72;69.99;100723.91;5099841;28;20028;-72
2023/03/12 10:19:11;;;;;;;21.33;19.38;;;;;;;5.75;70.02;100726.19;5094150;28;20027;-71
2023/03/12 10:22:03;;;;;;;28.05;21.13;;;;;;;5.77;70.04;100737.50;5089382;28;20365;-71
2023/03/12 10:24:54;;;;;;;21.48;15.13;;;;;;;5.80;70.14;100734.41;5092020;28;20110;-71
2023/03/12 10:27:23;;;;;;;34.50;21.45;;;;;;;5.83;70.11;100734.81;5082115;28;20040;-71
2023/03/12 10:29:51;;;;;;;;;;;;;;;5.86;70.22;100739.75;5078860;28;20039;-73
2023/03/12 10:32:24;;;;;;;37.65;19.98;;;;;;;5.88;70.14;100728.81;5111760;27;19920;-72
2023/03/12 10:34:53;;;;;;;36.63;23.52;;;;;;;5.90;70.05;100723.25;5072409;28;20028;-72
2023/03/12 10:37:30;;;;;;;32.95;20.60;;;;;;;5.93;70.65;100718.28;5091112;28;20479;-71
2023/03/12 10:39:58;;;;;;;22.85;16.48;;;;;;;5.97;70.88;100718.69;5089140;28;20086;-71
2023/03/12 10:42:26;;;;;;;29.52;19.45;;;;;;;5.99;70.92;100716.63;5100214;28;20027;-72
2023/03/12 10:45:10;;;;;;;18.25;16.33;;;;;;;6.03;71.19;100726.72;5081649;28;20032;-71
2023/03/12 10:47:38;;;;;;;25.65;17.52;;;;;;;6.06;71.26;100718.25;5101018;28;20028;-73
2023/03/12 10:50:16;;;;;;;18.20;16.00;;;;;;;6.11;71.46;100725.66;5069823;28;20032;-71
2023/03/12 10:52:45;;;;;;;36.63;19.65;;;;;;;6.14;71.31;100727.09;5081451;28;20154;-72
2023/03/12 10:55:29;;;;;;;20.33;18.50;;;;;;;6.18;71.73;100725.63;5082859;28;20456;-72
2023/03/12 10:57:55;;;;;;;54.70;20.45;;;;;;;6.21;71.82;100728.69;5092828;28;20036;-72
2023/03/12 11:00:30;;;;;;;22.38;17.73;;;;;;;6.24;71.59;100728.25;5089233;28;20043;-72
2023/03/12 11:02:58;;;;;;;34.58;19.17;;;;;;;6.29;71.80;100724.94;5088288;28;20049;-71
2023/03/12 11:05:27;;;;;;;;;;;;;;;6.31;71.90;100741.66;5077736;28;20090;-71
2023/03/12 11:07:53;;;;;;;22.13;16.58;;;;;;;6.33;71.78;100723.47;5094328;28;19920;-72
2023/03/12 11:10:22;;;;;;;32.45;20.38;;;;;;;6.37;71.57;100739.97;5094469;28;20063;-72
2023/03/12 11:12:54;;;;;;;35.45;19.60;;;;;;;6.40;71.85;100735.00;5091475;28;20058;-72
2023/03/12 11:15:35;;;;;;;32.53;18.65;;;;;;;6.44;71.94;100741.56;5089091;28;20040;-85
2023/03/12 11:18:18;;;;;;;45.15;21.70;;;;;;;6.63;72.55;100741.69;5080741;28;20064;-73
2023/03/12 11:20:44;;;;;;;32.20;20.38;;;;;;;6.74;72.34;100743.66;5069136;28;20021;-72